sensor_id;sensor_type;location;lat;lon;timestamp;P1;durP1;ratioP1;P2;durP2;ratioP2
4294;SDS011;2161;53.634;10.100;2023-05-21T00:00:47;593.73;;;127.43;;
4294;SDS011;2161;53.634;10.100;2023-05-21T00:03:14;589.10;;;125.47;;
4294;SDS011;2161;53.634;10.100;2023-05-21T00:05:40;587.10;;;124.07;;
4294;SDS011;2161;53.634;10.100;2023-05-21T00:08:06;591.00;;;127.22;;
4294;SDS011;2161;53.634;10.100;2023-05-21T00:10:31;585.00;;;122.27;;
4294;SDS011;2161;53.634;10.100;2023-05-21T00:12:57;595.10;;;130.90;;
4294;SDS011;2161;53.634;10.100;2023-05-21T00:15:22;586.33;;;122.97;;
4294;SDS011;2161;53.634;10.100;2023-05-21T00:17:48;588.40;;;124.17;;
4294;SDS011;2161;53.634;10.100;2023-05-21T00:20:14;585.97;;;124.23;;
4294;SDS011;2161;53.634;10.100;2023-05-21T00:22:40;587.47;;;125.15;;
4294;SDS011;2161;53.634;10.100;2023-05-21T00:25:06;586.53;;;123.57;;
4294;SDS011;2161;53.634;10.100;2023-05-21T00:27:32;587.90;;;124.78;;
4294;SDS011;2161;53.634;10.100;2023-05-21T00:29:58;587.93;;;125.30;;
4294;SDS011;2161;53.634;10.100;2023-05-21T00:32:23;586.10;;;123.97;;
4294;SDS011;2161;53.634;10.100;2023-05-21T00:34:49;588.07;;;125.13;;
4294;SDS011;2161;53.634;10.100;2023-05-21T00:37:14;582.67;;;122.00;;
4294;SDS011;2161;53.634;10.100;2023-05-21T00:39:40;584.40;;;123.10;;
4294;SDS011;2161;53.634;10.100;2023-05-21T00:42:06;581.03;;;120.47;;
4294;SDS011;2161;53.634;10.100;2023-05-21T00:44:31;585.03;;;124.83;;
4294;SDS011;2161;53.634;10.100;2023-05-21T00:47:01;583.85;;;122.57;;
4294;SDS011;2161;53.634;10.100;2023-05-21T00:49:27;587.60;;;124.32;;
4294;SDS011;2161;53.634;10.100;2023-05-21T00:51:54;585.42;;;123.38;;
4294;SDS011;2161;53.634;10.100;2023-05-21T00:54:20;588.63;;;124.93;;
4294;SDS011;2161;53.634;10.100;2023-05-21T00:56:46;582.92;;;121.28;;
4294;SDS011;2161;53.634;10.100;2023-05-21T00:59:13;582.93;;;122.70;;
4294;SDS011;2161;53.634;10.100;2023-05-21T01:01:40;585.10;;;123.78;;
4294;SDS011;2161;53.634;10.100;2023-05-21T01:04:10;590.25;;;127.45;;
4294;SDS011;2161;53.634;10.100;2023-05-21T01:06:36;586.53;;;124.95;;
4294;SDS011;2161;53.634;10.100;2023-05-21T01:09:02;583.00;;;122.57;;
4294;SDS011;2161;53.634;10.100;2023-05-21T01:11:40;591.40;;;128.80;;
4294;SDS011;2161;53.634;10.100;2023-05-21T01:14:10;586.33;;;124.70;;
4294;SDS011;2161;53.634;10.100;2023-05-21T01:16:37;583.55;;;123.78;;
4294;SDS011;2161;53.634;10.100;2023-05-21T01:19:04;581.70;;;122.18;;
4294;SDS011;2161;53.634;10.100;2023-05-21T01:21:34;583.67;;;121.90;;
4294;SDS011;2161;53.634;10.100;2023-05-21T01:24:05;582.80;;;121.40;;
4294;SDS011;2161;53.634;10.100;2023-05-21T01:26:31;584.40;;;123.95;;
4294;SDS011;2161;53.634;10.100;2023-05-21T01:29:02;581.97;;;121.65;;
4294;SDS011;2161;53.634;10.100;2023-05-21T01:31:36;584.35;;;123.15;;
4294;SDS011;2161;53.634;10.100;2023-05-21T01:34:05;582.60;;;121.00;;
4294;SDS011;2161;53.634;10.100;2023-05-21T01:36:36;583.92;;;124.18;;
4294;SDS011;2161;53.634;10.100;2023-05-21T01:39:29;586.42;;;125.07;;
4294;SDS011;2161;53.634;10.100;2023-05-21T01:41:55;588.97;;;128.23;;
4294;SDS011;2161;53.634;10.100;2023-05-21T01:44:22;582.70;;;123.45;;
4294;SDS011;2161;53.634;10.100;2023-05-21T01:46:49;584.80;;;123.78;;
4294;SDS011;2161;53.634;10.100;2023-05-21T01:49:17;585.15;;;123.80;;
4294;SDS011;2161;53.634;10.100;2023-05-21T01:51:44;584.95;;;123.78;;
4294;SDS011;2161;53.634;10.100;2023-05-21T01:54:10;587.20;;;125.18;;
4294;SDS011;2161;53.634;10.100;2023-05-21T01:56:36;582.87;;;123.07;;
4294;SDS011;2161;53.634;10.100;2023-05-21T01:59:01;583.30;;;122.07;;
4294;SDS011;2161;53.634;10.100;2023-05-21T02:01:27;581.83;;;123.07;;
4294;SDS011;2161;53.634;10.100;2023-05-21T02:03:54;587.28;;;125.93;;
4294;SDS011;2161;53.634;10.100;2023-05-21T02:06:20;584.13;;;124.97;;
4294;SDS011;2161;53.634;10.100;2023-05-21T02:08:46;580.43;;;121.83;;
4294;SDS011;2161;53.634;10.100;2023-05-21T02:11:12;580.50;;;121.47;;
4294;SDS011;2161;53.634;10.100;2023-05-21T02:13:38;581.43;;;122.43;;
4294;SDS011;2161;53.634;10.100;2023-05-21T02:16:07;581.38;;;123.10;;
4294;SDS011;2161;53.634;10.100;2023-05-21T02:18:36;581.47;;;122.68;;
4294;SDS011;2161;53.634;10.100;2023-05-21T02:21:02;581.53;;;122.68;;
4294;SDS011;2161;53.634;10.100;2023-05-21T02:23:28;580.07;;;123.00;;
4294;SDS011;2161;53.634;10.100;2023-05-21T02:25:53;580.40;;;122.17;;
4294;SDS011;2161;53.634;10.100;2023-05-21T02:28:19;585.17;;;126.13;;
4294;SDS011;2161;53.634;10.100;2023-05-21T02:30:45;577.67;;;119.90;;
4294;SDS011;2161;53.634;10.100;2023-05-21T02:33:10;582.10;;;123.57;;
4294;SDS011;2161;53.634;10.100;2023-05-21T02:35:38;584.67;;;124.00;;
4294;SDS011;2161;53.634;10.100;2023-05-21T02:38:03;588.17;;;128.13;;
4294;SDS011;2161;53.634;10.100;2023-05-21T02:40:29;585.83;;;125.77;;
4294;SDS011;2161;53.634;10.100;2023-05-21T02:42:56;581.25;;;121.82;;
4294;SDS011;2161;53.634;10.100;2023-05-21T02:45:22;584.73;;;125.93;;
4294;SDS011;2161;53.634;10.100;2023-05-21T02:47:47;582.80;;;124.33;;
4294;SDS011;2161;53.634;10.100;2023-05-21T02:50:13;578.93;;;121.07;;
4294;SDS011;2161;53.634;10.100;2023-05-21T02:52:39;579.00;;;121.60;;
4294;SDS011;2161;53.634;10.100;2023-05-21T02:55:05;584.35;;;124.93;;
4294;SDS011;2161;53.634;10.100;2023-05-21T02:57:31;583.58;;;123.82;;
4294;SDS011;2161;53.634;10.100;2023-05-21T02:59:57;576.27;;;119.33;;
4294;SDS011;2161;53.634;10.100;2023-05-21T03:02:22;579.30;;;120.60;;
4294;SDS011;2161;53.634;10.100;2023-05-21T03:04:48;574.40;;;118.83;;
4294;SDS011;2161;53.634;10.100;2023-05-21T03:07:14;576.85;;;119.18;;
4294;SDS011;2161;53.634;10.100;2023-05-21T03:09:42;573.55;;;117.55;;
4294;SDS011;2161;53.634;10.100;2023-05-21T03:12:09;577.53;;;119.77;;
4294;SDS011;2161;53.634;10.100;2023-05-21T03:14:34;578.13;;;120.00;;
4294;SDS011;2161;53.634;10.100;2023-05-21T03:17:00;577.20;;;120.00;;
4294;SDS011;2161;53.634;10.100;2023-05-21T03:19:30;577.22;;;119.78;;
4294;SDS011;2161;53.634;10.100;2023-05-21T03:21:58;575.83;;;118.85;;
4294;SDS011;2161;53.634;10.100;2023-05-21T03:24:25;576.83;;;119.25;;
4294;SDS011;2161;53.634;10.100;2023-05-21T03:26:51;578.83;;;121.93;;
4294;SDS011;2161;53.634;10.100;2023-05-21T03:29:17;577.17;;;119.88;;
4294;SDS011;2161;53.634;10.100;2023-05-21T03:31:43;578.97;;;120.90;;
4294;SDS011;2161;53.634;10.100;2023-05-21T03:34:08;578.13;;;121.40;;
4294;SDS011;2161;53.634;10.100;2023-05-21T03:36:34;575.80;;;119.70;;
4294;SDS011;2161;53.634;10.100;2023-05-21T03:38:59;582.77;;;123.57;;
4294;SDS011;2161;53.634;10.100;2023-05-21T03:41:25;582.93;;;124.30;;
4294;SDS011;2161;53.634;10.100;2023-05-21T03:43:50;585.13;;;125.53;;
4294;SDS011;2161;53.634;10.100;2023-05-21T03:46:16;578.40;;;122.10;;
4294;SDS011;2161;53.634;10.100;2023-05-21T03:48:41;574.90;;;120.27;;
4294;SDS011;2161;53.634;10.100;2023-05-21T03:51:07;581.20;;;125.77;;
4294;SDS011;2161;53.634;10.100;2023-05-21T03:53:33;578.90;;;122.38;;
4294;SDS011;2161;53.634;10.100;2023-05-21T03:55:59;579.83;;;123.28;;
4294;SDS011;2161;53.634;10.100;2023-05-21T03:58:25;582.63;;;125.50;;
4294;SDS011;2161;53.634;10.100;2023-05-21T04:00:50;583.03;;;126.07;;
4294;SDS011;2161;53.634;10.100;2023-05-21T04:03:16;579.83;;;122.43;;
4294;SDS011;2161;53.634;10.100;2023-05-21T04:05:42;581.73;;;122.97;;
4294;SDS011;2161;53.634;10.100;2023-05-21T04:08:07;587.07;;;129.47;;
4294;SDS011;2161;53.634;10.100;2023-05-21T04:10:33;584.33;;;127.47;;
4294;SDS011;2161;53.634;10.100;2023-05-21T04:12:59;577.00;;;121.67;;
4294;SDS011;2161;53.634;10.100;2023-05-21T04:15:24;580.93;;;124.77;;
4294;SDS011;2161;53.634;10.100;2023-05-21T04:17:51;581.53;;;123.25;;
4294;SDS011;2161;53.634;10.100;2023-05-21T04:20:17;581.73;;;124.27;;
4294;SDS011;2161;53.634;10.100;2023-05-21T04:22:43;579.93;;;123.70;;
4294;SDS011;2161;53.634;10.100;2023-05-21T04:25:08;574.90;;;119.17;;
4294;SDS011;2161;53.634;10.100;2023-05-21T04:27:35;581.33;;;124.37;;
4294;SDS011;2161;53.634;10.100;2023-05-21T04:30:00;578.28;;;120.32;;
4294;SDS011;2161;53.634;10.100;2023-05-21T04:32:28;583.95;;;124.32;;
4294;SDS011;2161;53.634;10.100;2023-05-21T04:34:59;580.20;;;123.35;;
4294;SDS011;2161;53.634;10.100;2023-05-21T04:37:25;580.38;;;122.85;;
4294;SDS011;2161;53.634;10.100;2023-05-21T04:39:52;582.65;;;125.63;;
4294;SDS011;2161;53.634;10.100;2023-05-21T04:42:21;581.00;;;124.82;;
4294;SDS011;2161;53.634;10.100;2023-05-21T04:44:48;574.53;;;118.57;;
4294;SDS011;2161;53.634;10.100;2023-05-21T04:47:14;575.58;;;118.05;;
4294;SDS011;2161;53.634;10.100;2023-05-21T04:49:40;576.92;;;119.60;;
4294;SDS011;2161;53.634;10.100;2023-05-21T04:52:06;584.93;;;125.30;;
4294;SDS011;2161;53.634;10.100;2023-05-21T04:54:32;581.70;;;124.45;;
4294;SDS011;2161;53.634;10.100;2023-05-21T04:56:57;578.00;;;122.07;;
4294;SDS011;2161;53.634;10.100;2023-05-21T04:59:23;580.60;;;124.10;;
4294;SDS011;2161;53.634;10.100;2023-05-21T05:01:49;581.03;;;125.63;;
4294;SDS011;2161;53.634;10.100;2023-05-21T05:04:14;586.10;;;127.47;;
4294;SDS011;2161;53.634;10.100;2023-05-21T05:06:40;580.20;;;124.30;;
4294;SDS011;2161;53.634;10.100;2023-05-21T05:09:05;582.73;;;123.10;;
4294;SDS011;2161;53.634;10.100;2023-05-21T05:11:31;577.80;;;121.27;;
4294;SDS011;2161;53.634;10.100;2023-05-21T05:13:57;583.57;;;124.27;;
4294;SDS011;2161;53.634;10.100;2023-05-21T05:16:22;582.10;;;123.77;;
4294;SDS011;2161;53.634;10.100;2023-05-21T05:18:51;580.80;;;123.40;;
4294;SDS011;2161;53.634;10.100;2023-05-21T05:21:17;584.17;;;126.73;;
4294;SDS011;2161;53.634;10.100;2023-05-21T05:23:43;581.07;;;123.47;;
4294;SDS011;2161;53.634;10.100;2023-05-21T05:26:09;579.60;;;121.07;;
4294;SDS011;2161;53.634;10.100;2023-05-21T05:28:35;578.03;;;120.28;;
4294;SDS011;2161;53.634;10.100;2023-05-21T05:31:00;587.03;;;126.93;;
4294;SDS011;2161;53.634;10.100;2023-05-21T05:33:26;586.40;;;126.10;;
4294;SDS011;2161;53.634;10.100;2023-05-21T05:35:52;583.73;;;125.83;;
4294;SDS011;2161;53.634;10.100;2023-05-21T05:38:17;581.50;;;123.80;;
4294;SDS011;2161;53.634;10.100;2023-05-21T05:40:43;578.43;;;119.60;;
4294;SDS011;2161;53.634;10.100;2023-05-21T05:43:08;577.30;;;119.63;;
4294;SDS011;2161;53.634;10.100;2023-05-21T05:45:34;579.83;;;121.93;;
4294;SDS011;2161;53.634;10.100;2023-05-21T05:47:59;584.27;;;127.13;;
4294;SDS011;2161;53.634;10.100;2023-05-21T05:50:25;585.70;;;126.77;;
4294;SDS011;2161;53.634;10.100;2023-05-21T05:52:51;588.23;;;128.07;;
4294;SDS011;2161;53.634;10.100;2023-05-21T05:55:17;582.13;;;123.33;;
4294;SDS011;2161;53.634;10.100;2023-05-21T05:57:42;589.10;;;127.30;;
4294;SDS011;2161;53.634;10.100;2023-05-21T06:00:08;589.00;;;129.73;;
4294;SDS011;2161;53.634;10.100;2023-05-21T06:02:34;587.92;;;127.30;;
4294;SDS011;2161;53.634;10.100;2023-05-21T06:05:01;587.53;;;126.15;;
4294;SDS011;2161;53.634;10.100;2023-05-21T06:07:27;592.15;;;131.20;;
4294;SDS011;2161;53.634;10.100;2023-05-21T06:09:52;590.53;;;130.20;;
4294;SDS011;2161;53.634;10.100;2023-05-21T06:12:18;587.93;;;128.00;;
4294;SDS011;2161;53.634;10.100;2023-05-21T06:14:43;586.70;;;125.53;;
4294;SDS011;2161;53.634;10.100;2023-05-21T06:17:10;589.10;;;126.15;;
4294;SDS011;2161;53.634;10.100;2023-05-21T06:19:36;588.07;;;126.63;;
4294;SDS011;2161;53.634;10.100;2023-05-21T06:22:01;594.40;;;132.30;;
4294;SDS011;2161;53.634;10.100;2023-05-21T06:24:27;593.73;;;132.07;;
4294;SDS011;2161;53.634;10.100;2023-05-21T06:26:52;590.43;;;128.63;;
4294;SDS011;2161;53.634;10.100;2023-05-21T06:29:18;590.73;;;127.83;;
4294;SDS011;2161;53.634;10.100;2023-05-21T06:31:43;595.03;;;130.97;;
4294;SDS011;2161;53.634;10.100;2023-05-21T06:34:09;595.63;;;129.83;;
4294;SDS011;2161;53.634;10.100;2023-05-21T06:36:35;595.47;;;131.13;;
4294;SDS011;2161;53.634;10.100;2023-05-21T06:39:01;597.33;;;130.47;;
4294;SDS011;2161;53.634;10.100;2023-05-21T06:41:27;596.42;;;128.68;;
4294;SDS011;2161;53.634;10.100;2023-05-21T06:43:52;595.33;;;128.43;;
4294;SDS011;2161;53.634;10.100;2023-05-21T06:46:18;594.30;;;127.87;;
4294;SDS011;2161;53.634;10.100;2023-05-21T06:48:44;596.23;;;127.60;;
4294;SDS011;2161;53.634;10.100;2023-05-21T06:51:10;594.30;;;126.10;;
4294;SDS011;2161;53.634;10.100;2023-05-21T06:53:36;595.60;;;128.60;;
4294;SDS011;2161;53.634;10.100;2023-05-21T06:56:01;594.87;;;127.07;;
4294;SDS011;2161;53.634;10.100;2023-05-21T06:58:27;593.23;;;124.30;;
4294;SDS011;2161;53.634;10.100;2023-05-21T07:00:55;596.70;;;128.23;;
4294;SDS011;2161;53.634;10.100;2023-05-21T07:03:21;596.50;;;129.80;;
4294;SDS011;2161;53.634;10.100;2023-05-21T07:05:47;592.63;;;125.40;;
4294;SDS011;2161;53.634;10.100;2023-05-21T07:08:12;601.83;;;131.17;;
4294;SDS011;2161;53.634;10.100;2023-05-21T07:10:38;599.67;;;130.07;;
4294;SDS011;2161;53.634;10.100;2023-05-21T07:13:03;602.03;;;130.23;;
4294;SDS011;2161;53.634;10.100;2023-05-21T07:15:29;597.10;;;127.60;;
4294;SDS011;2161;53.634;10.100;2023-05-21T07:17:54;601.73;;;130.33;;
4294;SDS011;2161;53.634;10.100;2023-05-21T07:20:20;601.73;;;130.33;;
4294;SDS011;2161;53.634;10.100;2023-05-21T07:22:45;599.40;;;130.67;;
4294;SDS011;2161;53.634;10.100;2023-05-21T07:25:11;600.73;;;129.97;;
4294;SDS011;2161;53.634;10.100;2023-05-21T07:27:37;603.63;;;131.90;;
4294;SDS011;2161;53.634;10.100;2023-05-21T07:30:02;601.37;;;131.63;;
4294;SDS011;2161;53.634;10.100;2023-05-21T07:32:28;598.57;;;128.17;;
4294;SDS011;2161;53.634;10.100;2023-05-21T07:34:54;599.53;;;128.87;;
4294;SDS011;2161;53.634;10.100;2023-05-21T07:37:20;597.53;;;125.53;;
4294;SDS011;2161;53.634;10.100;2023-05-21T07:39:46;597.13;;;125.60;;
4294;SDS011;2161;53.634;10.100;2023-05-21T07:42:11;598.80;;;126.60;;
4294;SDS011;2161;53.634;10.100;2023-05-21T07:44:37;598.43;;;126.23;;
4294;SDS011;2161;53.634;10.100;2023-05-21T07:47:02;599.23;;;128.20;;
4294;SDS011;2161;53.634;10.100;2023-05-21T07:49:28;604.83;;;131.77;;
4294;SDS011;2161;53.634;10.100;2023-05-21T07:51:54;602.97;;;132.47;;
4294;SDS011;2161;53.634;10.100;2023-05-21T07:54:20;604.10;;;130.97;;
4294;SDS011;2161;53.634;10.100;2023-05-21T07:56:45;610.40;;;136.57;;
4294;SDS011;2161;53.634;10.100;2023-05-21T07:59:12;611.30;;;136.33;;
4294;SDS011;2161;53.634;10.100;2023-05-21T08:01:38;609.93;;;133.83;;
4294;SDS011;2161;53.634;10.100;2023-05-21T08:04:04;618.53;;;143.07;;
4294;SDS011;2161;53.634;10.100;2023-05-21T08:06:30;609.67;;;133.23;;
4294;SDS011;2161;53.634;10.100;2023-05-21T08:08:57;612.83;;;137.00;;
4294;SDS011;2161;53.634;10.100;2023-05-21T08:11:25;617.43;;;141.20;;
4294;SDS011;2161;53.634;10.100;2023-05-21T08:13:51;612.73;;;137.27;;
4294;SDS011;2161;53.634;10.100;2023-05-21T08:16:17;616.53;;;138.07;;
4294;SDS011;2161;53.634;10.100;2023-05-21T08:18:42;613.37;;;137.50;;
4294;SDS011;2161;53.634;10.100;2023-05-21T08:21:08;616.43;;;139.47;;
4294;SDS011;2161;53.634;10.100;2023-05-21T08:23:34;618.20;;;140.70;;
4294;SDS011;2161;53.634;10.100;2023-05-21T08:25:59;618.63;;;141.60;;
4294;SDS011;2161;53.634;10.100;2023-05-21T08:28:25;617.80;;;141.17;;
4294;SDS011;2161;53.634;10.100;2023-05-21T08:30:52;617.30;;;139.73;;
4294;SDS011;2161;53.634;10.100;2023-05-21T08:33:18;612.47;;;135.03;;
4294;SDS011;2161;53.634;10.100;2023-05-21T08:35:44;621.30;;;145.33;;
4294;SDS011;2161;53.634;10.100;2023-05-21T08:38:09;623.93;;;145.13;;
4294;SDS011;2161;53.634;10.100;2023-05-21T08:40:35;618.13;;;139.20;;
4294;SDS011;2161;53.634;10.100;2023-05-21T08:43:01;617.83;;;139.70;;
4294;SDS011;2161;53.634;10.100;2023-05-21T08:45:27;615.13;;;136.50;;
4294;SDS011;2161;53.634;10.100;2023-05-21T08:48:01;621.43;;;144.53;;
4294;SDS011;2161;53.634;10.100;2023-05-21T08:50:27;624.33;;;145.10;;
4294;SDS011;2161;53.634;10.100;2023-05-21T08:52:53;610.80;;;134.43;;
4294;SDS011;2161;53.634;10.100;2023-05-21T08:55:23;614.58;;;135.65;;
4294;SDS011;2161;53.634;10.100;2023-05-21T08:57:48;618.40;;;136.93;;
4294;SDS011;2161;53.634;10.100;2023-05-21T09:00:14;620.10;;;139.87;;
4294;SDS011;2161;53.634;10.100;2023-05-21T09:02:40;617.83;;;137.87;;
4294;SDS011;2161;53.634;10.100;2023-05-21T09:05:07;622.17;;;142.10;;
4294;SDS011;2161;53.634;10.100;2023-05-21T09:07:37;608.80;;;129.80;;
4294;SDS011;2161;53.634;10.100;2023-05-21T09:10:07;617.87;;;139.03;;
4294;SDS011;2161;53.634;10.100;2023-05-21T09:12:37;618.63;;;137.97;;
4294;SDS011;2161;53.634;10.100;2023-05-21T09:15:02;622.13;;;141.43;;
4294;SDS011;2161;53.634;10.100;2023-05-21T09:17:29;617.53;;;137.03;;
4294;SDS011;2161;53.634;10.100;2023-05-21T09:20:04;620.77;;;140.90;;
4294;SDS011;2161;53.634;10.100;2023-05-21T09:22:33;620.33;;;138.37;;
4294;SDS011;2161;53.634;10.100;2023-05-21T09:25:02;612.87;;;132.90;;
4294;SDS011;2161;53.634;10.100;2023-05-21T09:27:29;614.83;;;134.70;;
4294;SDS011;2161;53.634;10.100;2023-05-21T09:29:54;618.00;;;136.67;;
4294;SDS011;2161;53.634;10.100;2023-05-21T09:32:20;626.30;;;144.53;;
4294;SDS011;2161;53.634;10.100;2023-05-21T09:34:46;623.37;;;143.90;;
4294;SDS011;2161;53.634;10.100;2023-05-21T09:37:12;623.13;;;140.67;;
4294;SDS011;2161;53.634;10.100;2023-05-21T09:39:38;615.20;;;135.40;;
4294;SDS011;2161;53.634;10.100;2023-05-21T09:42:05;623.03;;;142.97;;
4294;SDS011;2161;53.634;10.100;2023-05-21T09:44:31;623.13;;;143.87;;
4294;SDS011;2161;53.634;10.100;2023-05-21T09:46:56;622.60;;;139.43;;
4294;SDS011;2161;53.634;10.100;2023-05-21T09:49:23;613.97;;;133.53;;
4294;SDS011;2161;53.634;10.100;2023-05-21T09:51:53;622.13;;;140.70;;
4294;SDS011;2161;53.634;10.100;2023-05-21T09:54:20;621.60;;;139.33;;
4294;SDS011;2161;53.634;10.100;2023-05-21T09:56:46;624.93;;;144.00;;
4294;SDS011;2161;53.634;10.100;2023-05-21T09:59:11;623.03;;;140.83;;
4294;SDS011;2161;53.634;10.100;2023-05-21T10:01:37;619.27;;;136.80;;
4294;SDS011;2161;53.634;10.100;2023-05-21T10:04:05;618.70;;;134.03;;
4294;SDS011;2161;53.634;10.100;2023-05-21T10:06:31;619.80;;;137.00;;
4294;SDS011;2161;53.634;10.100;2023-05-21T10:09:02;624.00;;;142.23;;
4294;SDS011;2161;53.634;10.100;2023-05-21T10:11:31;623.17;;;141.20;;
4294;SDS011;2161;53.634;10.100;2023-05-21T10:14:08;623.43;;;140.60;;
4294;SDS011;2161;53.634;10.100;2023-05-21T10:16:40;625.50;;;143.37;;
4294;SDS011;2161;53.634;10.100;2023-05-21T10:19:07;624.07;;;138.77;;
4294;SDS011;2161;53.634;10.100;2023-05-21T10:21:35;623.23;;;138.57;;
4294;SDS011;2161;53.634;10.100;2023-05-21T10:24:01;626.80;;;142.77;;
4294;SDS011;2161;53.634;10.100;2023-05-21T10:26:28;625.03;;;139.47;;
4294;SDS011;2161;53.634;10.100;2023-05-21T10:28:55;628.93;;;145.47;;
4294;SDS011;2161;53.634;10.100;2023-05-21T10:31:23;621.13;;;137.30;;
4294;SDS011;2161;53.634;10.100;2023-05-21T10:33:51;627.07;;;141.47;;
4294;SDS011;2161;53.634;10.100;2023-05-21T10:36:17;624.80;;;139.43;;
4294;SDS011;2161;53.634;10.100;2023-05-21T10:38:45;627.37;;;143.80;;
4294;SDS011;2161;53.634;10.100;2023-05-21T10:41:12;631.73;;;145.93;;
4294;SDS011;2161;53.634;10.100;2023-05-21T10:43:44;623.20;;;135.88;;
4294;SDS011;2161;53.634;10.100;2023-05-21T10:46:31;625.50;;;141.40;;
4294;SDS011;2161;53.634;10.100;2023-05-21T10:49:17;626.57;;;138.73;;
4294;SDS011;2161;53.634;10.100;2023-05-21T10:55:00;627.37;;;140.43;;
4294;SDS011;2161;53.634;10.100;2023-05-21T11:00:36;627.90;;;142.13;;
4294;SDS011;2161;53.634;10.100;2023-05-21T11:03:02;628.03;;;140.13;;
4294;SDS011;2161;53.634;10.100;2023-05-21T11:08:26;632.03;;;144.43;;
4294;SDS011;2161;53.634;10.100;2023-05-21T11:10:58;628.50;;;139.27;;
4294;SDS011;2161;53.634;10.100;2023-05-21T11:13:24;624.13;;;135.80;;
4294;SDS011;2161;53.634;10.100;2023-05-21T11:18:23;627.07;;;139.73;;
4294;SDS011;2161;53.634;10.100;2023-05-21T11:20:55;627.07;;;138.87;;
4294;SDS011;2161;53.634;10.100;2023-05-21T11:23:50;635.27;;;147.27;;
4294;SDS011;2161;53.634;10.100;2023-05-21T11:26:26;634.47;;;148.47;;
4294;SDS011;2161;53.634;10.100;2023-05-21T11:29:10;635.67;;;150.83;;
4294;SDS011;2161;53.634;10.100;2023-05-21T11:31:36;634.67;;;144.33;;
4294;SDS011;2161;53.634;10.100;2023-05-21T11:34:21;631.77;;;148.40;;
4294;SDS011;2161;53.634;10.100;2023-05-21T11:39:43;624.90;;;138.63;;
4294;SDS011;2161;53.634;10.100;2023-05-21T11:42:09;626.60;;;138.53;;
4294;SDS011;2161;53.634;10.100;2023-05-21T11:47:07;625.90;;;137.40;;
4294;SDS011;2161;53.634;10.100;2023-05-21T11:49:34;631.27;;;142.77;;
4294;SDS011;2161;53.634;10.100;2023-05-21T11:52:01;634.50;;;145.23;;
4294;SDS011;2161;53.634;10.100;2023-05-21T11:54:28;628.63;;;140.33;;
4294;SDS011;2161;53.634;10.100;2023-05-21T11:57:00;629.33;;;142.20;;
4294;SDS011;2161;53.634;10.100;2023-05-21T11:59:27;634.53;;;145.43;;
4294;SDS011;2161;53.634;10.100;2023-05-21T12:01:54;637.87;;;148.73;;
4294;SDS011;2161;53.634;10.100;2023-05-21T12:04:20;634.77;;;148.57;;
4294;SDS011;2161;53.634;10.100;2023-05-21T12:06:45;635.00;;;146.10;;
4294;SDS011;2161;53.634;10.100;2023-05-21T12:09:12;627.73;;;139.47;;
4294;SDS011;2161;53.634;10.100;2023-05-21T12:11:38;629.10;;;142.20;;
4294;SDS011;2161;53.634;10.100;2023-05-21T12:14:08;637.17;;;149.87;;
4294;SDS011;2161;53.634;10.100;2023-05-21T12:16:35;635.33;;;148.70;;
4294;SDS011;2161;53.634;10.100;2023-05-21T12:19:01;633.00;;;149.03;;
4294;SDS011;2161;53.634;10.100;2023-05-21T12:21:28;632.07;;;150.50;;
4294;SDS011;2161;53.634;10.100;2023-05-21T12:23:54;635.70;;;150.00;;
4294;SDS011;2161;53.634;10.100;2023-05-21T12:26:20;644.43;;;155.60;;
4294;SDS011;2161;53.634;10.100;2023-05-21T12:28:49;640.77;;;155.50;;
4294;SDS011;2161;53.634;10.100;2023-05-21T12:31:18;638.67;;;154.33;;
4294;SDS011;2161;53.634;10.100;2023-05-21T12:33:49;644.63;;;157.63;;
4294;SDS011;2161;53.634;10.100;2023-05-21T12:36:21;633.37;;;146.60;;
4294;SDS011;2161;53.634;10.100;2023-05-21T12:38:50;638.83;;;150.70;;
4294;SDS011;2161;53.634;10.100;2023-05-21T12:41:16;640.33;;;152.60;;
4294;SDS011;2161;53.634;10.100;2023-05-21T12:43:42;638.53;;;152.77;;
4294;SDS011;2161;53.634;10.100;2023-05-21T12:46:11;629.97;;;143.87;;
4294;SDS011;2161;53.634;10.100;2023-05-21T12:48:48;642.00;;;157.50;;
4294;SDS011;2161;53.634;10.100;2023-05-21T12:51:15;635.50;;;147.20;;
4294;SDS011;2161;53.634;10.100;2023-05-21T12:53:41;640.20;;;152.57;;
4294;SDS011;2161;53.634;10.100;2023-05-21T12:56:10;637.03;;;150.20;;
4294;SDS011;2161;53.634;10.100;2023-05-21T12:58:36;638.13;;;151.93;;
4294;SDS011;2161;53.634;10.100;2023-05-21T13:01:09;637.37;;;149.23;;
4294;SDS011;2161;53.634;10.100;2023-05-21T13:03:36;634.77;;;147.93;;
4294;SDS011;2161;53.634;10.100;2023-05-21T13:06:04;645.53;;;162.27;;
4294;SDS011;2161;53.634;10.100;2023-05-21T13:08:31;639.47;;;153.53;;
4294;SDS011;2161;53.634;10.100;2023-05-21T13:11:02;640.00;;;154.90;;
4294;SDS011;2161;53.634;10.100;2023-05-21T13:13:28;634.53;;;149.50;;
4294;SDS011;2161;53.634;10.100;2023-05-21T13:15:54;635.67;;;148.97;;
4294;SDS011;2161;53.634;10.100;2023-05-21T13:18:20;636.00;;;148.93;;
4294;SDS011;2161;53.634;10.100;2023-05-21T13:20:46;633.23;;;149.07;;
4294;SDS011;2161;53.634;10.100;2023-05-21T13:23:15;635.73;;;150.20;;
4294;SDS011;2161;53.634;10.100;2023-05-21T13:25:41;638.40;;;154.90;;
4294;SDS011;2161;53.634;10.100;2023-05-21T13:28:06;637.03;;;149.67;;
4294;SDS011;2161;53.634;10.100;2023-05-21T13:30:34;633.07;;;146.13;;
4294;SDS011;2161;53.634;10.100;2023-05-21T13:33:00;637.47;;;147.03;;
4294;SDS011;2161;53.634;10.100;2023-05-21T13:35:25;632.63;;;146.33;;
4294;SDS011;2161;53.634;10.100;2023-05-21T13:37:51;639.57;;;149.73;;
4294;SDS011;2161;53.634;10.100;2023-05-21T13:40:17;642.63;;;154.30;;
4294;SDS011;2161;53.634;10.100;2023-05-21T13:42:43;636.70;;;148.43;;
4294;SDS011;2161;53.634;10.100;2023-05-21T13:45:10;636.07;;;150.43;;
4294;SDS011;2161;53.634;10.100;2023-05-21T13:47:38;636.53;;;148.30;;
4294;SDS011;2161;53.634;10.100;2023-05-21T13:50:04;633.33;;;145.63;;
4294;SDS011;2161;53.634;10.100;2023-05-21T13:52:30;631.97;;;144.77;;
4294;SDS011;2161;53.634;10.100;2023-05-21T13:54:55;640.20;;;151.27;;
4294;SDS011;2161;53.634;10.100;2023-05-21T13:57:21;630.80;;;142.00;;
4294;SDS011;2161;53.634;10.100;2023-05-21T13:59:47;644.07;;;156.10;;
4294;SDS011;2161;53.634;10.100;2023-05-21T14:02:14;635.93;;;148.00;;
4294;SDS011;2161;53.634;10.100;2023-05-21T14:04:40;630.77;;;145.33;;
4294;SDS011;2161;53.634;10.100;2023-05-21T14:07:05;636.60;;;147.27;;
4294;SDS011;2161;53.634;10.100;2023-05-21T14:09:31;628.90;;;139.90;;
4294;SDS011;2161;53.634;10.100;2023-05-21T14:11:57;634.30;;;145.13;;
4294;SDS011;2161;53.634;10.100;2023-05-21T14:14:22;631.27;;;144.40;;
4294;SDS011;2161;53.634;10.100;2023-05-21T14:16:49;638.37;;;152.37;;
4294;SDS011;2161;53.634;10.100;2023-05-21T14:19:15;634.77;;;143.57;;
4294;SDS011;2161;53.634;10.100;2023-05-21T14:21:41;637.33;;;148.43;;
4294;SDS011;2161;53.634;10.100;2023-05-21T14:24:07;634.70;;;145.13;;